Time;durP1;ratioP1;P1;durP2;ratioP2;P2;SDS_P1;SDS_P2;PMS_P1;PMS_P2;Temp;Humidity;BMP_temperature;BMP_pressure;BME280_temperature;BME280_humidity;BME280_pressure;Samples;Min_cycle;Max_cycle;Signal;HPM_P1;HPM_P2
2023/08/21 00:01:13;;;;;;;3.20;0.90;;;17.10;99.90;;;;;;5072640;28;20047;-75
2023/08/21 00:03:39;;;;;;;1.75;0.90;;;17.00;99.90;;;;;;5069143;28;20453;-75
2023/08/21 00:06:04;;;;;;;2.97;0.88;;;16.90;99.90;;;;;;5072858;28;20126;-75
2023/08/21 00:08:30;;;;;;;3.13;0.93;;;16.90;99.90;;;;;;5072755;28;20035;-75
2023/08/21 00:10:55;;;;;;;3.53;1.30;;;16.90;99.90;;;;;;5072554;28;20090;-75
2023/08/21 00:13:21;;;;;;;2.78;1.20;;;16.80;99.90;;;;;;5072927;28;20097;-75
2023/08/21 00:15:46;;;;;;;2.70;1.40;;;16.80;99.90;;;;;;5072688;28;20491;-75
2023/08/21 00:18:12;;;;;;;3.35;1.73;;;16.60;99.90;;;;;;5072252;28;20059;-75
2023/08/21 00:20:37;;;;;;;2.55;1.45;;;16.60;99.90;;;;;;5071195;28;20406;-75
2023/08/21 00:23:03;;;;;;;5.13;1.58;;;16.60;99.90;;;;;;5072243;28;20046;-75
2023/08/21 00:25:29;;;;;;;2.83;1.20;;;16.50;99.90;;;;;;5072494;28;20486;-75
2023/08/21 00:27:54;;;;;;;4.78;1.23;;;16.60;99.90;;;;;;5072508;28;20043;-75
2023/08/21 00:30:20;;;;;;;2.05;0.77;;;16.50;99.90;;;;;;5055294;28;20054;-75
2023/08/21 00:32:45;;;;;;;1.45;0.70;;;16.40;99.90;;;;;;5072518;28;20029;-76
2023/08/21 00:35:11;;;;;;;2.53;0.80;;;16.40;99.90;;;;;;5072766;28;20032;-75
2023/08/21 00:37:37;;;;;;;2.42;0.50;;;16.30;99.90;;;;;;5072172;28;20036;-75
2023/08/21 00:40:03;;;;;;;2.10;0.90;;;16.30;99.90;;;;;;5072723;28;20456;-76
2023/08/21 00:42:29;;;;;;;2.50;0.68;;;16.20;99.90;;;;;;5073170;28;20032;-76
2023/08/21 00:44:54;;;;;;;3.83;1.30;;;16.20;99.90;;;;;;5054453;28;20047;-75
2023/08/21 00:47:20;;;;;;;2.17;1.10;;;16.10;99.90;;;;;;5076429;28;20035;-75
2023/08/21 00:49:45;;;;;;;3.58;1.15;;;16.00;99.90;;;;;;5076848;28;20089;-76
2023/08/21 00:52:12;;;;;;;4.53;1.38;;;16.00;99.90;;;;;;5075999;28;20576;-75
2023/08/21 00:54:38;;;;;;;3.08;1.40;;;16.00;99.90;;;;;;5076453;28;20060;-74
2023/08/21 00:57:04;;;;;;;4.70;1.70;;;16.00;99.90;;;;;;5075857;28;20063;-75
2023/08/21 00:59:30;;;;;;;4.65;1.42;;;16.10;99.90;;;;;;5075674;28;20036;-75
2023/08/21 01:01:55;;;;;;;2.60;1.55;;;16.10;99.90;;;;;;5076224;28;20072;-75
2023/08/21 01:04:21;;;;;;;2.78;1.38;;;16.10;99.90;;;;;;5076216;28;20032;-75
2023/08/21 01:06:49;;;;;;;3.75;1.60;;;16.00;99.90;;;;;;5079028;28;20032;-75
2023/08/21 01:09:36;;;;;;;3.78;1.60;;;15.90;99.90;;;;;;5075491;28;20124;-75
2023/08/21 01:12:20;;;;;;;6.28;2.00;;;15.90;99.90;;;;;;5075903;28;20036;-75
2023/08/21 01:14:56;;;;;;;3.85;1.50;;;16.00;99.90;;;;;;5075817;28;20040;-75
2023/08/21 01:17:23;;;;;;;2.92;1.40;;;15.90;99.90;;;;;;5075024;28;20044;-75
2023/08/21 01:19:50;;;;;;;2.63;1.50;;;15.90;99.90;;;;;;5092183;28;20348;-75
2023/08/21 01:22:16;;;;;;;3.00;1.40;;;15.80;99.90;;;;;;5075635;28;20032;-75
2023/08/21 01:24:41;;;;;;;3.75;1.15;;;15.80;99.90;;;;;;5060929;28;20035;-75
2023/08/21 01:27:08;;;;;;;2.38;0.98;;;15.80;99.90;;;;;;5092095;28;20449;-75
2023/08/21 01:29:34;;;;;;;1.48;0.77;;;15.70;99.90;;;;;;5058855;28;20036;-75
2023/08/21 01:32:13;;;;;;;2.38;1.20;;;15.70;99.90;;;;;;5075667;28;20450;-75
2023/08/21 01:34:40;;;;;;;3.05;1.40;;;15.60;99.90;;;;;;5075192;28;20067;-74
2023/08/21 01:37:06;;;;;;;5.55;1.70;;;15.60;99.90;;;;;;5058006;28;20044;-74
2023/08/21 01:39:32;;;;;;;5.30;1.45;;;15.60;99.90;;;;;;5074977;28;20040;-74
2023/08/21 01:41:58;;;;;;;3.38;0.98;;;15.60;99.90;;;;;;5075302;28;20051;-75
2023/08/21 01:44:24;;;;;;;5.13;0.93;;;15.50;99.90;;;;;;5059978;28;20080;-75
2023/08/21 01:46:50;;;;;;;3.80;1.45;;;15.50;99.90;;;;;;5075003;28;20047;-75
2023/08/21 01:49:15;;;;;;;1.65;1.10;;;15.40;99.90;;;;;;5075213;28;20040;-75
2023/08/21 01:51:41;;;;;;;3.38;1.35;;;15.40;99.90;;;;;;5074019;28;20092;-75
2023/08/21 01:54:06;;;;;;;3.28;1.20;;;15.40;99.90;;;;;;5076041;28;20108;-75
2023/08/21 01:56:32;;;;;;;3.85;1.17;;;15.30;99.90;;;;;;5073692;28;20036;-75
2023/08/21 01:58:57;;;;;;;1.50;0.75;;;15.30;99.90;;;;;;5073923;28;20043;-75
2023/08/21 02:01:23;;;;;;;2.22;0.65;;;15.30;99.90;;;;;;5074753;28;20035;-75
2023/08/21 02:03:49;;;;;;;1.10;0.60;;;15.20;99.90;;;;;;5075369;28;20131;-75
2023/08/21 02:06:14;;;;;;;3.13;1.00;;;15.20;99.90;;;;;;5074242;28;20028;-75
2023/08/21 02:08:40;;;;;;;1.23;0.90;;;15.20;99.90;;;;;;5071087;28;20048;-75
2023/08/21 02:11:05;;;;;;;1.10;1.00;;;15.10;99.90;;;;;;5074991;28;20044;-75
2023/08/21 02:13:32;;;;;;;2.75;1.30;;;15.10;99.90;;;;;;5074437;28;20032;-74
2023/08/21 02:15:58;;;;;;;1.52;1.00;;;15.10;99.90;;;;;;5074517;28;20063;-75
2023/08/21 02:18:24;;;;;;;3.65;1.10;;;14.90;99.90;;;;;;5074632;28;20454;-75
2023/08/21 02:20:49;;;;;;;2.60;1.48;;;14.80;99.90;;;;;;5074663;28;20043;-75
2023/08/21 02:23:15;;;;;;;5.00;1.65;;;14.80;99.90;;;;;;5074634;28;20067;-74
2023/08/21 02:25:42;;;;;;;3.28;1.40;;;14.80;99.90;;;;;;5057800;28;20040;-74
2023/08/21 02:28:07;;;;;;;4.85;1.50;;;14.80;99.90;;;;;;5074160;28;20035;-75
2023/08/21 02:30:33;;;;;;;3.50;1.40;;;14.90;99.90;;;;;;5077952;28;20042;-75
2023/08/21 02:32:59;;;;;;;2.53;1.40;;;15.00;99.90;;;;;;5074662;28;20067;-75
2023/08/21 02:35:24;;;;;;;2.83;1.50;;;15.00;99.90;;;;;;5074295;28;20051;-75
2023/08/21 02:37:50;;;;;;;4.15;2.00;;;15.00;99.90;;;;;;5073711;28;20062;-75
2023/08/21 02:40:16;;;;;;;2.38;1.45;;;15.00;99.90;;;;;;5074477;28;20130;-75
2023/08/21 02:42:41;;;;;;;3.05;1.70;;;15.10;99.90;;;;;;5073679;28;20052;-75
2023/08/21 02:45:10;;;;;;;4.95;1.90;;;15.10;99.90;;;;;;5073780;28;20043;-74
2023/08/21 02:47:40;;;;;;;5.15;1.90;;;15.10;99.90;;;;;;5073882;28;20131;-75
2023/08/21 02:50:06;;;;;;;3.80;1.25;;;15.00;99.90;;;;;;5073719;28;20043;-74
2023/08/21 02:52:33;;;;;;;3.17;1.50;;;15.00;99.90;;;;;;5074172;28;20044;-75
2023/08/21 02:54:59;;;;;;;3.35;1.50;;;15.00;99.90;;;;;;5072388;28;20066;-74
2023/08/21 02:57:26;;;;;;;2.58;1.20;;;15.00;99.90;;;;;;5073284;28;20505;-75
2023/08/21 02:59:52;;;;;;;5.15;1.20;;;14.90;99.90;;;;;;5074104;28;20248;-74
2023/08/21 03:02:18;;;;;;;5.05;1.23;;;14.90;99.90;;;;;;5073449;28;20055;-75
2023/08/21 03:04:44;;;;;;;2.45;1.15;;;14.80;99.90;;;;;;5073314;28;20525;-75
2023/08/21 03:07:09;;;;;;;2.53;1.40;;;14.80;99.90;;;;;;5076671;28;20037;-75
2023/08/21 03:09:36;;;;;;;2.30;1.48;;;14.70;99.90;;;;;;5056430;28;20046;-74
2023/08/21 03:12:02;;;;;;;3.58;1.40;;;14.70;99.90;;;;;;5073771;28;20490;-75
2023/08/21 03:14:28;;;;;;;3.38;1.80;;;14.70;99.90;;;;;;5072222;28;20044;-75
2023/08/21 03:16:53;;;;;;;5.25;2.00;;;14.70;99.90;;;;;;5070356;28;20033;-75
2023/08/21 03:19:19;;;;;;;3.35;1.90;;;14.70;99.90;;;;;;5073556;28;20117;-75
2023/08/21 03:21:44;;;;;;;2.58;1.83;;;14.80;99.90;;;;;;5074066;28;20503;-74
2023/08/21 03:24:10;;;;;;;4.22;2.38;;;14.70;99.90;;;;;;5073332;28;20070;-74
2023/08/21 03:26:35;;;;;;;4.20;2.30;;;14.80;99.90;;;;;;5072885;28;20472;-75
2023/08/21 03:29:01;;;;;;;3.22;2.00;;;14.70;99.90;;;;;;5073239;28;20407;-74
2023/08/21 03:31:27;;;;;;;2.50;1.88;;;14.70;99.90;;;;;;5071648;28;20039;-74
2023/08/21 03:33:52;;;;;;;4.07;2.08;;;14.70;99.90;;;;;;5071906;28;20564;-74
2023/08/21 03:36:19;;;;;;;4.15;1.83;;;14.70;99.90;;;;;;5072864;28;20032;-74
2023/08/21 03:38:44;;;;;;;3.80;2.30;;;14.60;99.90;;;;;;5073271;28;20093;-75
2023/08/21 03:41:10;;;;;;;3.00;1.85;;;14.60;99.90;;;;;;5073442;28;20428;-74
2023/08/21 03:43:36;;;;;;;4.10;2.17;;;14.60;99.90;;;;;;5073243;28;20032;-75
2023/08/21 03:46:02;;;;;;;4.47;1.92;;;14.60;99.90;;;;;;5090978;28;20050;-75
2023/08/21 03:48:27;;;;;;;3.00;1.80;;;14.50;99.90;;;;;;5072742;28;20510;-75
2023/08/21 03:50:53;;;;;;;2.47;2.00;;;14.50;99.90;;;;;;5070874;28;20414;-74
2023/08/21 03:53:18;;;;;;;3.42;1.90;;;14.40;99.90;;;;;;5072268;28;20491;-75
2023/08/21 03:55:44;;;;;;;4.38;2.03;;;14.30;99.90;;;;;;5073157;28;20179;-75
2023/08/21 03:58:10;;;;;;;3.85;2.10;;;14.30;99.90;;;;;;5072776;28;20032;-75
2023/08/21 04:00:35;;;;;;;2.83;1.95;;;14.30;99.90;;;;;;5090867;28;20115;-74
2023/08/21 04:03:01;;;;;;;5.05;1.95;;;14.30;99.90;;;;;;5072886;28;20036;-75
2023/08/21 04:05:26;;;;;;;4.18;2.40;;;14.30;99.90;;;;;;5072918;28;20023;-74
2023/08/21 04:07:52;;;;;;;3.78;2.70;;;14.40;99.90;;;;;;5071153;28;20044;-74
2023/08/21 04:10:17;;;;;;;5.00;2.50;;;14.40;99.90;;;;;;5066804;28;20376;-74
2023/08/21 04:12:43;;;;;;;6.35;2.72;;;14.40;99.90;;;;;;5072937;28;20040;-74
2023/08/21 04:15:09;;;;;;;6.20;2.72;;;14.50;99.90;;;;;;5072664;28;20032;-74
2023/08/21 04:17:35;;;;;;;5.15;2.95;;;14.50;99.90;;;;;;5075351;28;20548;-74
2023/08/21 04:20:00;;;;;;;4.90;2.58;;;14.50;99.90;;;;;;5073865;28;20036;-74
2023/08/21 04:22:26;;;;;;;2.83;1.90;;;14.50;99.90;;;;;;5077263;28;20059;-74
2023/08/21 04:24:51;;;;;;;4.57;2.50;;;14.50;99.90;;;;;;5094900;28;20048;-74
2023/08/21 04:27:17;;;;;;;4.03;2.47;;;14.40;99.90;;;;;;5072385;28;20031;-74
2023/08/21 04:29:42;;;;;;;4.47;2.80;;;14.40;99.90;;;;;;5076632;28;20254;-74
2023/08/21 04:32:08;;;;;;;6.63;2.53;;;14.40;99.90;;;;;;5076782;28;20127;-74
2023/08/21 04:34:34;;;;;;;5.82;3.05;;;14.40;99.90;;;;;;5076795;28;20589;-74
2023/08/21 04:37:00;;;;;;;3.70;2.70;;;14.40;99.90;;;;;;5076901;28;20039;-74
2023/08/21 04:39:25;;;;;;;6.45;2.80;;;14.40;99.90;;;;;;5076563;28;20040;-75
2023/08/21 04:41:51;;;;;;;6.80;3.50;;;14.40;99.90;;;;;;5076802;28;20048;-74
2023/08/21 04:44:17;;;;;;;9.82;2.92;;;14.30;99.90;;;;;;5076487;28;20042;-75
2023/08/21 04:46:42;;;;;;;8.48;3.33;;;14.30;99.90;;;;;;5076506;28;20362;-74
2023/08/21 04:49:08;;;;;;;6.50;3.13;;;14.20;99.90;;;;;;5075885;28;20032;-74
2023/08/21 04:51:34;;;;;;;5.47;2.83;;;14.20;99.90;;;;;;5076417;28;20040;-74
2023/08/21 04:54:00;;;;;;;3.53;2.30;;;14.20;99.90;;;;;;5076345;28;20047;-74
2023/08/21 04:56:26;;;;;;;4.93;2.67;;;14.30;99.90;;;;;;5076086;28;20032;-74
2023/08/21 04:58:52;;;;;;;4.85;2.60;;;14.30;99.90;;;;;;5076150;28;20036;-75
2023/08/21 05:01:18;;;;;;;4.75;3.05;;;14.30;99.90;;;;;;5076494;28;20454;-75
2023/08/21 05:03:43;;;;;;;5.15;3.35;;;14.40;99.90;;;;;;5076209;28;20078;-75
2023/08/21 05:06:09;;;;;;;4.82;2.60;;;14.40;99.90;;;;;;5075735;28;20066;-74
2023/08/21 05:08:35;;;;;;;3.38;2.33;;;14.40;99.90;;;;;;5082353;28;20114;-74
2023/08/21 05:11:01;;;;;;;3.10;2.47;;;14.50;99.90;;;;;;5078603;28;20032;-74
2023/08/21 05:13:27;;;;;;;5.90;2.80;;;14.50;99.90;;;;;;5067756;28;20024;-74
2023/08/21 05:15:57;;;;;;;3.35;2.38;;;14.50;99.90;;;;;;5071664;28;20040;-75
2023/08/21 05:18:24;;;;;;;4.07;2.30;;;14.50;99.90;;;;;;5071139;28;20059;-75
2023/08/21 05:20:51;;;;;;;3.67;2.40;;;14.60;99.90;;;;;;5071049;28;20046;-75
2023/08/21 05:23:16;;;;;;;4.30;2.58;;;14.70;99.90;;;;;;5071618;28;20422;-75
2023/08/21 05:25:47;;;;;;;5.38;2.40;;;14.80;99.90;;;;;;5055300;28;20040;-74
2023/08/21 05:28:12;;;;;;;6.15;2.63;;;14.80;99.90;;;;;;5072921;28;20124;-75
2023/08/21 05:30:38;;;;;;;5.18;2.55;;;14.90;99.90;;;;;;5072781;28;20127;-75
2023/08/21 05:33:04;;;;;;;3.25;2.08;;;15.00;99.90;;;;;;5072612;28;20081;-75
2023/08/21 05:35:35;;;;;;;4.35;2.20;;;15.00;99.90;;;;;;5072845;28;20092;-75
2023/08/21 05:38:03;;;;;;;3.75;2.30;;;15.00;99.90;;;;;;5072380;28;20119;-75
2023/08/21 05:40:29;;;;;;;4.82;2.55;;;15.00;99.90;;;;;;5087650;28;20047;-75
2023/08/21 05:42:56;;;;;;;4.60;2.35;;;15.10;99.90;;;;;;5073240;28;20051;-75
2023/08/21 05:45:21;;;;;;;4.05;2.30;;;15.20;99.90;;;;;;5058398;28;20409;-75
2023/08/21 05:47:47;;;;;;;4.78;2.33;;;15.40;99.90;;;;;;5066998;28;20109;-75
2023/08/21 05:50:12;;;;;;;3.95;2.30;;;15.50;99.90;;;;;;5074980;28;20036;-75
2023/08/21 05:52:38;;;;;;;4.38;2.17;;;15.60;99.90;;;;;;5075333;28;20483;-75
2023/08/21 05:55:05;;;;;;;7.40;2.42;;;15.70;99.90;;;;;;5075058;28;20040;-75
2023/08/21 05:57:30;;;;;;;6.00;2.60;;;15.80;99.90;;;;;;5075155;28;20032;-75
2023/08/21 05:59:56;;;;;;;10.25;3.15;;;15.90;99.90;;;;;;5074968;28;20054;-75
2023/08/21 06:02:21;;;;;;;8.02;2.97;;;16.10;99.90;;;;;;5075183;28;20064;-75
2023/08/21 06:04:47;;;;;;;6.53;2.60;;;16.20;99.90;;;;;;5072765;28;20089;-75
2023/08/21 06:07:12;;;;;;;5.53;2.92;;;16.30;99.90;;;;;;5057675;28;20036;-75
2023/08/21 06:09:38;;;;;;;6.60;2.67;;;16.40;99.90;;;;;;5074792;28;20419;-75
2023/08/21 06:12:03;;;;;;;6.95;3.13;;;16.50;99.90;;;;;;5074845;28;20058;-76
2023/08/21 06:14:29;;;;;;;7.13;2.63;;;16.60;99.90;;;;;;5074856;28;20460;-75
2023/08/21 06:17:00;;;;;;;6.15;2.33;;;16.70;99.90;;;;;;5057545;28;20114;-76
2023/08/21 06:19:26;;;;;;;7.03;2.80;;;16.90;99.90;;;;;;5060877;28;20392;-75
2023/08/21 06:21:52;;;;;;;7.45;2.83;;;17.00;99.90;;;;;;5074583;28;20036;-75
2023/08/21 06:24:17;;;;;;;3.83;2.22;;;17.10;99.90;;;;;;5074543;28;20510;-75
2023/08/21 06:26:43;;;;;;;6.38;2.65;;;17.20;99.90;;;;;;5074412;28;20415;-75
2023/08/21 06:29:08;;;;;;;5.78;2.50;;;17.40;99.90;;;;;;5074623;28;20083;-75
2023/08/21 06:31:34;;;;;;;5.78;2.50;;;17.40;99.90;;;;;;5073799;28;20032;-75
2023/08/21 06:33:59;;;;;;;7.45;2.70;;;17.50;99.90;;;;;;5072568;28;20170;-76
2023/08/21 06:36:25;;;;;;;3.97;2.20;;;17.60;99.90;;;;;;5064776;28;20571;-75
2023/08/21 06:38:50;;;;;;;5.05;2.40;;;17.80;99.90;;;;;;5054518;28;20036;-75
2023/08/21 06:41:16;;;;;;;7.50;2.97;;;17.90;99.90;;;;;;5054634;28;20062;-75
2023/08/21 06:43:41;;;;;;;5.47;2.55;;;18.00;99.90;;;;;;5052754;28;20434;-75
2023/08/21 06:46:07;;;;;;;5.35;2.20;;;18.10;99.90;;;;;;5056457;28;20519;-75
2023/08/21 06:48:34;;;;;;;7.72;2.60;;;18.20;99.90;;;;;;5073391;28;20036;-75
2023/08/21 06:50:59;;;;;;;5.35;2.67;;;18.40;99.90;;;;;;5072225;28;20377;-75
2023/08/21 06:53:25;;;;;;;4.93;2.10;;;18.50;99.90;;;;;;5074146;28;20039;-75
2023/08/21 06:55:50;;;;;;;6.20;2.30;;;18.60;99.90;;;;;;5070340;28;20550;-76
2023/08/21 06:58:16;;;;;;;6.88;2.50;;;18.70;99.90;;;;;;5068247;28;20399;-74
2023/08/21 07:00:41;;;;;;;7.93;2.30;;;18.90;99.90;;;;;;5053827;28;20044;-75
2023/08/21 07:03:07;;;;;;;7.95;2.72;;;19.00;99.90;;;;;;5072646;28;20043;-75
2023/08/21 07:05:33;;;;;;;7.93;2.03;;;19.10;99.90;;;;;;5072988;28;20039;-75
2023/08/21 07:07:59;;;;;;;6.32;2.10;;;19.20;99.90;;;;;;5072932;28;20045;-76
2023/08/21 07:10:25;;;;;;;7.85;2.22;;;19.40;99.90;;;;;;5054048;28;20120;-75
2023/08/21 07:12:50;;;;;;;4.03;1.80;;;19.50;99.90;;;;;;5072068;28;20044;-75
2023/08/21 07:15:16;;;;;;;5.40;2.03;;;19.60;99.90;;;;;;5072752;28;20043;-75
2023/08/21 07:17:41;;;;;;;5.45;2.05;;;19.60;99.90;;;;;;5075673;28;20129;-75
2023/08/21 07:20:07;;;;;;;6.03;2.15;;;19.80;99.90;;;;;;5074286;28;20032;-75
2023/08/21 07:22:33;;;;;;;5.38;2.15;;;19.90;99.90;;;;;;5077510;28;20169;-75
2023/08/21 07:25:00;;;;;;;3.78;1.60;;;20.00;99.90;;;;;;5091940;28;20055;-75
2023/08/21 07:27:26;;;;;;;7.28;1.75;;;20.10;99.90;;;;;;5100232;28;20412;-75
2023/08/21 07:29:51;;;;;;;3.92;1.63;;;20.10;99.90;;;;;;5073096;28;20047;-75
2023/08/21 07:32:17;;;;;;;5.45;1.50;;;20.30;99.90;;;;;;5073139;28;20024;-75
2023/08/21 07:34:42;;;;;;;4.03;1.55;;;20.40;99.90;;;;;;5076344;28;20111;-75
2023/08/21 07:37:09;;;;;;;4.82;1.48;;;20.50;99.90;;;;;;5074755;28;20032;-75
2023/08/21 07:39:34;;;;;;;4.22;1.40;;;20.50;99.90;;;;;;5072624;28;20406;-75
2023/08/21 07:42:00;;;;;;;5.07;1.48;;;20.60;99.90;;;;;;5078915;28;20035;-75
2023/08/21 07:44:26;;;;;;;5.85;1.67;;;20.70;99.90;;;;;;5074095;28;20050;-74
2023/08/21 07:46:52;;;;;;;3.00;1.42;;;20.90;99.90;;;;;;5078827;28;20521;-76
2023/08/21 07:49:17;;;;;;;5.40;1.70;;;20.90;99.90;;;;;;5062861;28;20040;-76
2023/08/21 07:51:43;;;;;;;4.03;1.30;;;21.00;99.90;;;;;;5075404;28;20080;-75
2023/08/21 07:54:08;;;;;;;5.18;1.38;;;21.10;99.90;;;;;;5076877;28;20032;-75
2023/08/21 07:56:35;;;;;;;3.13;1.10;;;21.20;99.90;;;;;;5070552;28;20403;-76
2023/08/21 07:59:02;;;;;;;3.70;1.60;;;21.50;99.90;;;;;;5067380;28;20036;-75
2023/08/21 08:01:27;;;;;;;3.10;1.40;;;21.50;99.90;;;;;;5070824;28;20046;-75
2023/08/21 08:03:53;;;;;;;4.10;1.60;;;21.60;99.90;;;;;;5068790;28;20115;-75
2023/08/21 08:06:18;;;;;;;6.43;1.60;;;21.70;99.90;;;;;;5072134;28;20047;-77
2023/08/21 08:08:45;;;;;;;4.65;1.80;;;21.60;99.90;;;;;;5072484;28;20071;-76
2023/08/21 08:11:11;;;;;;;4.10;1.85;;;21.80;99.90;;;;;;5073095;28;20050;-76
2023/08/21 08:13:36;;;;;;;5.82;1.73;;;21.90;99.90;;;;;;5072857;28;20440;-77
2023/08/21 08:16:02;;;;;;;3.90;1.50;;;21.90;99.90;;;;;;5074033;28;20131;-77
2023/08/21 08:18:28;;;;;;;5.78;1.63;;;22.10;99.90;;;;;;5071319;28;20032;-76
2023/08/21 08:20:53;;;;;;;5.07;1.58;;;22.20;99.90;;;;;;5073391;28;20036;-77
2023/08/21 08:23:20;;;;;;;3.75;1.50;;;22.30;99.90;;;;;;5072558;28;20039;-76
2023/08/21 08:25:45;;;;;;;4.07;1.30;;;22.30;99.90;;;;;;5072875;28;20120;-76
2023/08/21 08:28:11;;;;;;;3.58;1.40;;;22.40;99.90;;;;;;5072448;28;20127;-77
2023/08/21 08:30:36;;;;;;;5.30;1.40;;;22.40;99.90;;;;;;5064513;28;20142;-77
2023/08/21 08:33:02;;;;;;;5.95;1.30;;;22.50;99.90;;;;;;5060829;28;20067;-77
2023/08/21 08:35:27;;;;;;;5.28;1.45;;;22.50;99.90;;;;;;5072620;28;20103;-77
2023/08/21 08:37:53;;;;;;;3.35;1.50;;;22.50;99.90;;;;;;5061421;28;20035;-77
2023/08/21 08:40:19;;;;;;;3.47;1.30;;;22.60;99.90;;;;;;5066114;28;20040;-77
2023/08/21 08:42:44;;;;;;;5.72;1.25;;;22.80;99.90;;;;;;5069231;28;20036;-76
2023/08/21 08:45:13;;;;;;;3.42;1.27;;;22.80;99.90;;;;;;5088832;28;20111;-76
2023/08/21 08:47:40;;;;;;;3.97;1.40;;;22.90;99.90;;;;;;5066027;28;20040;-77
2023/08/21 08:50:08;;;;;;;3.67;1.15;;;23.00;99.90;;;;;;5076348;28;20421;-77
2023/08/21 08:52:40;;;;;;;4.72;1.40;;;23.00;99.90;;;;;;5075614;28;20036;-77
2023/08/21 08:55:07;;;;;;;5.07;1.20;;;23.10;99.90;;;;;;5079395;28;20040;-77
2023/08/21 08:57:34;;;;;;;3.75;1.30;;;23.10;99.90;;;;;;5069191;28;20039;-77
2023/08/21 08:59:59;;;;;;;3.80;1.20;;;23.10;99.90;;;;;;5063275;28;20053;-77
2023/08/21 09:02:28;;;;;;;3.72;1.42;;;23.10;99.90;;;;;;5071979;28;20036;-77
2023/08/21 09:04:54;;;;;;;3.75;1.13;;;23.20;99.90;;;;;;5067490;28;20169;-77
2023/08/21 09:07:20;;;;;;;3.72;1.05;;;23.20;99.90;;;;;;5058415;28;20115;-77
2023/08/21 09:09:49;;;;;;;3.70;1.35;;;23.30;99.90;;;;;;5071584;28;20155;-77
2023/08/21 09:12:17;;;;;;;3.20;1.10;;;23.30;99.90;;;;;;5075317;28;20032;-77
2023/08/21 09:14:44;;;;;;;3.53;1.08;;;23.30;99.90;;;;;;5073336;28;20032;-77
2023/08/21 09:17:10;;;;;;;3.25;1.05;;;23.40;99.90;;;;;;5072194;28;20110;-77
2023/08/21 09:19:36;;;;;;;4.32;1.20;;;23.40;99.90;;;;;;5075549;28;20040;-77
2023/08/21 09:22:14;;;;;;;2.38;0.73;;;23.30;99.90;;;;;;5076016;28;20044;-77
2023/08/21 09:24:40;;;;;;;3.13;1.10;;;23.30;99.90;;;;;;5072538;28;20105;-77
2023/08/21 09:27:16;;;;;;;2.42;0.90;;;23.30;99.90;;;;;;5071428;28;20040;-77
2023/08/21 09:29:42;;;;;;;5.45;1.17;;;23.40;99.90;;;;;;5065685;28;20396;-77
2023/08/21 09:32:08;;;;;;;3.72;1.10;;;23.40;99.90;;;;;;5063910;28;20089;-78
2023/08/21 09:34:36;;;;;;;3.95;1.30;;;23.50;99.90;;;;;;5072662;28;20073;-78
2023/08/21 09:37:06;;;;;;;3.78;1.23;;;23.40;99.90;;;;;;5065678;28;20440;-77
2023/08/21 09:39:36;;;;;;;2.17;0.98;;;23.40;99.90;;;;;;5064935;28;20055;-77
2023/08/21 09:42:06;;;;;;;2.90;1.00;;;23.50;99.90;;;;;;5065837;28;20058;-77
2023/08/21 09:44:39;;;;;;;4.05;1.00;;;23.40;99.90;;;;;;5069864;28;20071;-77
2023/08/21 09:47:07;;;;;;;3.85;1.40;;;23.50;99.90;;;;;;5069485;28;20047;-77
2023/08/21 09:49:36;;;;;;;4.50;1.20;;;23.50;99.90;;;;;;5072157;28;20109;-77
2023/08/21 09:52:04;;;;;;;2.85;0.98;;;23.50;99.90;;;;;;5074888;28;20045;-77
2023/08/21 09:54:31;;;;;;;2.30;1.05;;;23.60;99.90;;;;;;5070795;28;20047;-76
2023/08/21 09:56:57;;;;;;;2.83;1.10;;;23.60;99.90;;;;;;5073413;28;20043;-78
2023/08/21 09:59:24;;;;;;;3.38;1.10;;;23.60;99.90;;;;;;5074550;28;20047;-78
2023/08/21 10:01:51;;;;;;;3.63;1.50;;;23.70;99.90;;;;;;5075207;28;20503;-77
2023/08/21 10:04:18;;;;;;;3.22;1.38;;;23.70;99.90;;;;;;5090310;28;20085;-77
2023/08/21 10:06:45;;;;;;;3.60;1.20;;;23.80;99.90;;;;;;5092168;28;20040;-77
2023/08/21 10:09:12;;;;;;;4.45;1.10;;;23.80;99.90;;;;;;5074124;28;20039;-77
2023/08/21 10:11:38;;;;;;;4.03;1.33;;;23.90;99.90;;;;;;5071458;28;20123;-77
2023/08/21 10:14:03;;;;;;;4.53;1.15;;;23.90;99.90;;;;;;5074216;28;20066;-77
2023/08/21 10:16:29;;;;;;;3.22;1.08;;;24.00;99.90;;;;;;5074210;28;20039;-77
2023/08/21 10:18:55;;;;;;;3.85;1.30;;;24.00;99.90;;;;;;5072878;28;20047;-77
2023/08/21 10:21:25;;;;;;;4.88;1.50;;;24.00;99.90;;;;;;5074459;28;20044;-77
2023/08/21 10:23:51;;;;;;;3.97;1.27;;;24.10;99.90;;;;;;5074452;28;20140;-77
2023/08/21 10:26:21;;;;;;;4.55;1.30;;;24.20;99.90;;;;;;5065577;28;20040;-77
2023/08/21 10:29:06;;;;;;;4.90;1.42;;;24.30;99.90;;;;;;5064137;28;20036;-77
2023/08/21 10:31:35;;;;;;;2.90;1.30;;;24.30;99.90;;;;;;5073565;28;20044;-77
2023/08/21 10:34:03;;;;;;;2.58;1.08;;;24.30;99.90;;;;;;5073685;28;20047;-77
2023/08/21 10:36:44;;;;;;;2.75;1.20;;;24.40;99.90;;;;;;5068850;28;20396;-77
2023/08/21 10:39:18;;;;;;;4.10;1.20;;;24.60;99.90;;;;;;5072894;28;20044;-77
2023/08/21 10:41:53;;;;;;;4.07;1.30;;;24.60;99.90;;;;;;5073994;28;20036;-76
2023/08/21 10:44:34;;;;;;;3.45;1.20;;;24.60;99.90;;;;;;5066203;28;20036;-77
2023/08/21 10:47:17;;;;;;;2.78;1.10;;;24.70;99.90;;;;;;5073839;28;20115;-77
2023/08/21 10:49:44;;;;;;;4.63;1.42;;;24.80;99.90;;;;;;5074161;28;20106;-76
2023/08/21 10:52:10;;;;;;;5.68;1.13;;;24.90;99.90;;;;;;5074217;28;20040;-76
2023/08/21 10:54:44;;;;;;;3.30;1.20;;;25.00;99.90;;;;;;5068872;28;20036;-76
2023/08/21 10:57:09;;;;;;;3.70;1.17;;;25.00;99.90;;;;;;5073900;28;20036;-76
2023/08/21 10:59:35;;;;;;;3.53;0.93;;;25.20;99.90;;;;;;5074015;28;20040;-76
2023/08/21 11:02:00;;;;;;;3.83;1.10;;;25.30;99.90;;;;;;5073868;28;20089;-76
2023/08/21 11:04:26;;;;;;;3.78;1.20;;;25.30;99.90;;;;;;5074292;28;20517;-77
2023/08/21 11:06:52;;;;;;;2.72;1.20;;;25.40;99.90;;;;;;5073397;28;20040;-77
2023/08/21 11:09:18;;;;;;;2.58;1.17;;;25.50;99.90;;;;;;5073582;28;20032;-77
2023/08/21 11:11:44;;;;;;;3.75;1.30;;;25.60;99.90;;;;;;5073937;28;20036;-77
2023/08/21 11:14:09;;;;;;;2.13;1.10;;;25.70;99.90;;;;;;5073639;28;20042;-77
2023/08/21 11:16:35;;;;;;;3.50;1.20;;;25.90;99.90;;;;;;5073527;28;20180;-77
2023/08/21 11:19:05;;;;;;;1.77;1.02;;;26.00;99.90;;;;;;5057250;28;20086;-77
2023/08/21 11:21:31;;;;;;;2.78;1.20;;;26.20;99.90;;;;;;5070894;28;20425;-77
2023/08/21 11:23:56;;;;;;;3.35;1.08;;;26.30;99.90;;;;;;5073409;28;20044;-77
2023/08/21 11:26:22;;;;;;;5.07;1.50;;;26.50;99.90;;;;;;5064814;28;20405;-77
2023/08/21 11:28:48;;;;;;;3.50;1.40;;;26.50;99.90;;;;;;5056513;28;20032;-77
2023/08/21 11:31:13;;;;;;;4.18;1.40;;;26.70;99.90;;;;;;5055194;28;20688;-77
2023/08/21 11:33:39;;;;;;;4.20;1.45;;;26.80;99.90;;;;;;5078958;28;20043;-77
2023/08/21 11:36:05;;;;;;;3.80;1.63;;;26.90;99.90;;;;;;5064753;28;20048;-77
2023/08/21 11:38:30;;;;;;;4.78;1.63;;;27.10;99.90;;;;;;5072694;28;20112;-77
2023/08/21 11:41:00;;;;;;;5.82;1.65;;;27.20;99.90;;;;;;5078243;28;20048;-77
2023/08/21 11:43:39;;;;;;;3.63;1.38;;;27.10;99.90;;;;;;5072956;28;20491;-77
2023/08/21 11:46:06;;;;;;;5.05;1.45;;;27.20;99.90;;;;;;5072778;28;20390;-77
2023/08/21 11:48:32;;;;;;;2.90;1.10;;;27.50;99.90;;;;;;5072321;28;20039;-78
2023/08/21 11:50:58;;;;;;;2.97;1.08;;;27.50;99.90;;;;;;5072461;28;20088;-77
2023/08/21 11:53:37;;;;;;;4.68;1.52;;;27.70;99.90;;;;;;5073888;28;20406;-77
2023/08/21 11:56:27;;;;;;;5.07;1.40;;;27.80;99.90;;;;;;5062057;28;20036;-76
2023/08/21 11:58:53;;;;;;;4.70;1.45;;;27.90;99.90;;;;;;5072809;28;20044;-76
2023/08/21 12:01:22;;;;;;;6.50;1.70;;;27.60;99.90;;;;;;5063784;28;20050;-76
2023/08/21 12:03:54;;;;;;;5.93;2.15;;;27.40;99.90;;;;;;5074209;28;20039;-76
2023/08/21 12:06:21;;;;;;;5.18;1.80;;;27.40;99.90;;;;;;5069457;28;20036;-76
2023/08/21 12:08:46;;;;;;;4.85;1.73;;;27.50;99.90;;;;;;5060760;28;20534;-77
2023/08/21 12:11:12;;;;;;;4.68;1.60;;;27.60;99.90;;;;;;5070552;28;20032;-77
2023/08/21 12:13:37;;;;;;;5.15;1.80;;;27.90;99.90;;;;;;5062487;28;20495;-77
2023/08/21 12:16:03;;;;;;;3.10;1.35;;;28.00;99.90;;;;;;5071154;28;20048;-76
2023/08/21 12:18:29;;;;;;;5.65;1.70;;;28.30;99.90;;;;;;5057741;28;20115;-77
2023/08/21 12:20:55;;;;;;;5.85;2.05;;;28.00;99.90;;;;;;5072235;28;20119;-76
2023/08/21 12:23:20;;;;;;;5.10;1.70;;;28.30;99.90;;;;;;5071505;28;20063;-77
2023/08/21 12:25:46;;;;;;;5.75;1.67;;;28.50;99.90;;;;;;5074035;28;20076;-77
2023/08/21 12:28:11;;;;;;;3.67;1.40;;;28.60;99.90;;;;;;5076926;28;20050;-77
2023/08/21 12:30:37;;;;;;;5.10;1.70;;;28.70;99.90;;;;;;5072462;28;20504;-77
2023/08/21 12:33:03;;;;;;;5.70;1.55;;;28.90;99.90;;;;;;5072240;28;20075;-77
2023/08/21 12:35:29;;;;;;;3.60;1.38;;;28.90;99.90;;;;;;5072613;28;20043;-77
2023/08/21 12:37:57;;;;;;;4.88;1.45;;;29.30;99.90;;;;;;5071710;28;20097;-77
2023/08/21 12:40:22;;;;;;;4.82;1.38;;;29.40;99.90;;;;;;5071953;28;20032;-77
2023/08/21 12:42:48;;;;;;;5.47;1.40;;;29.40;99.90;;;;;;5076851;28;20518;-77
2023/08/21 12:45:14;;;;;;;4.72;1.30;;;29.40;99.90;;;;;;5076810;28;20043;-77